sensor_id;sensor_type;location;lat;lon;timestamp;P1;durP1;ratioP1;P2;durP2;ratioP2
41923;SDS011;27613;48.116;11.656;2023-07-30T00:00:36;0.75;;;0.70;;
41923;SDS011;27613;48.116;11.656;2023-07-30T00:03:02;1.08;;;0.88;;
41923;SDS011;27613;48.116;11.656;2023-07-30T00:05:27;1.50;;;1.10;;
41923;SDS011;27613;48.116;11.656;2023-07-30T00:07:53;1.05;;;0.82;;
41923;SDS011;27613;48.116;11.656;2023-07-30T00:10:19;1.33;;;1.10;;
41923;SDS011;27613;48.116;11.656;2023-07-30T00:12:45;1.02;;;0.90;;
41923;SDS011;27613;48.116;11.656;2023-07-30T00:15:10;0.77;;;0.77;;
41923;SDS011;27613;48.116;11.656;2023-07-30T00:17:37;1.00;;;0.88;;
41923;SDS011;27613;48.116;11.656;2023-07-30T00:20:03;1.05;;;0.95;;
41923;SDS011;27613;48.116;11.656;2023-07-30T00:22:30;1.25;;;1.00;;
41923;SDS011;27613;48.116;11.656;2023-07-30T00:24:55;0.95;;;0.85;;
41923;SDS011;27613;48.116;11.656;2023-07-30T00:27:21;0.98;;;0.88;;
41923;SDS011;27613;48.116;11.656;2023-07-30T00:29:46;1.85;;;1.10;;
41923;SDS011;27613;48.116;11.656;2023-07-30T00:32:12;2.10;;;1.10;;
41923;SDS011;27613;48.116;11.656;2023-07-30T00:34:40;1.73;;;1.40;;
41923;SDS011;27613;48.116;11.656;2023-07-30T00:37:06;1.63;;;1.20;;
41923;SDS011;27613;48.116;11.656;2023-07-30T00:39:31;1.17;;;0.98;;
41923;SDS011;27613;48.116;11.656;2023-07-30T00:41:57;1.60;;;1.30;;
41923;SDS011;27613;48.116;11.656;2023-07-30T00:44:23;1.40;;;0.90;;
41923;SDS011;27613;48.116;11.656;2023-07-30T00:46:48;1.55;;;1.13;;
41923;SDS011;27613;48.116;11.656;2023-07-30T00:49:14;0.90;;;0.80;;
41923;SDS011;27613;48.116;11.656;2023-07-30T00:51:40;2.22;;;1.48;;
41923;SDS011;27613;48.116;11.656;2023-07-30T00:54:07;0.90;;;0.90;;
41923;SDS011;27613;48.116;11.656;2023-07-30T00:56:32;1.52;;;1.23;;
41923;SDS011;27613;48.116;11.656;2023-07-30T00:58:59;1.75;;;1.05;;
41923;SDS011;27613;48.116;11.656;2023-07-30T01:01:25;1.30;;;1.00;;
41923;SDS011;27613;48.116;11.656;2023-07-30T01:03:50;1.25;;;1.10;;
41923;SDS011;27613;48.116;11.656;2023-07-30T01:06:16;1.98;;;1.10;;
41923;SDS011;27613;48.116;11.656;2023-07-30T01:08:42;1.42;;;1.00;;
41923;SDS011;27613;48.116;11.656;2023-07-30T01:11:08;1.83;;;1.00;;
41923;SDS011;27613;48.116;11.656;2023-07-30T01:13:35;1.25;;;0.90;;
41923;SDS011;27613;48.116;11.656;2023-07-30T01:16:00;6.15;;;1.48;;
41923;SDS011;27613;48.116;11.656;2023-07-30T01:18:28;1.55;;;1.13;;
41923;SDS011;27613;48.116;11.656;2023-07-30T01:20:57;1.55;;;1.20;;
41923;SDS011;27613;48.116;11.656;2023-07-30T01:23:23;1.45;;;1.20;;
41923;SDS011;27613;48.116;11.656;2023-07-30T01:25:50;1.42;;;1.10;;
41923;SDS011;27613;48.116;11.656;2023-07-30T01:28:49;1.13;;;0.82;;
41923;SDS011;27613;48.116;11.656;2023-07-30T01:31:18;1.30;;;0.98;;
41923;SDS011;27613;48.116;11.656;2023-07-30T01:33:46;1.55;;;1.00;;
41923;SDS011;27613;48.116;11.656;2023-07-30T01:36:15;2.03;;;1.23;;
41923;SDS011;27613;48.116;11.656;2023-07-30T01:38:42;1.70;;;1.00;;
41923;SDS011;27613;48.116;11.656;2023-07-30T01:41:09;1.70;;;0.85;;
41923;SDS011;27613;48.116;11.656;2023-07-30T01:43:35;1.70;;;0.95;;
41923;SDS011;27613;48.116;11.656;2023-07-30T01:46:00;1.90;;;1.17;;
41923;SDS011;27613;48.116;11.656;2023-07-30T01:48:26;1.73;;;1.20;;
41923;SDS011;27613;48.116;11.656;2023-07-30T01:50:52;1.23;;;0.82;;
41923;SDS011;27613;48.116;11.656;2023-07-30T01:53:17;1.60;;;1.00;;
41923;SDS011;27613;48.116;11.656;2023-07-30T01:55:43;1.52;;;1.00;;
41923;SDS011;27613;48.116;11.656;2023-07-30T01:58:10;1.23;;;0.90;;
41923;SDS011;27613;48.116;11.656;2023-07-30T02:00:36;1.10;;;0.98;;
41923;SDS011;27613;48.116;11.656;2023-07-30T02:03:02;1.25;;;1.00;;
41923;SDS011;27613;48.116;11.656;2023-07-30T02:05:28;1.50;;;1.08;;
41923;SDS011;27613;48.116;11.656;2023-07-30T02:07:53;1.48;;;1.10;;
41923;SDS011;27613;48.116;11.656;2023-07-30T02:10:19;2.15;;;1.20;;
41923;SDS011;27613;48.116;11.656;2023-07-30T02:12:44;0.77;;;0.70;;
41923;SDS011;27613;48.116;11.656;2023-07-30T02:15:10;2.33;;;1.02;;
41923;SDS011;27613;48.116;11.656;2023-07-30T02:17:35;1.42;;;1.10;;
41923;SDS011;27613;48.116;11.656;2023-07-30T02:20:01;2.40;;;1.10;;
41923;SDS011;27613;48.116;11.656;2023-07-30T02:22:26;1.60;;;1.02;;
41923;SDS011;27613;48.116;11.656;2023-07-30T02:24:52;2.00;;;1.15;;
41923;SDS011;27613;48.116;11.656;2023-07-30T02:27:18;1.75;;;1.30;;
41923;SDS011;27613;48.116;11.656;2023-07-30T02:29:43;1.35;;;1.17;;
41923;SDS011;27613;48.116;11.656;2023-07-30T02:32:09;2.50;;;1.45;;
41923;SDS011;27613;48.116;11.656;2023-07-30T02:34:34;1.85;;;1.20;;
41923;SDS011;27613;48.116;11.656;2023-07-30T02:37:00;1.67;;;1.20;;
41923;SDS011;27613;48.116;11.656;2023-07-30T02:39:25;1.60;;;1.15;;
41923;SDS011;27613;48.116;11.656;2023-07-30T02:41:51;1.58;;;1.10;;
41923;SDS011;27613;48.116;11.656;2023-07-30T02:44:16;1.45;;;1.10;;
41923;SDS011;27613;48.116;11.656;2023-07-30T02:46:42;1.20;;;1.05;;
41923;SDS011;27613;48.116;11.656;2023-07-30T02:49:07;1.48;;;1.00;;
41923;SDS011;27613;48.116;11.656;2023-07-30T02:51:33;1.63;;;1.00;;
41923;SDS011;27613;48.116;11.656;2023-07-30T02:53:59;1.55;;;1.10;;
41923;SDS011;27613;48.116;11.656;2023-07-30T02:56:29;1.23;;;1.02;;
41923;SDS011;27613;48.116;11.656;2023-07-30T02:58:55;1.88;;;1.20;;
41923;SDS011;27613;48.116;11.656;2023-07-30T03:01:22;1.65;;;1.08;;
41923;SDS011;27613;48.116;11.656;2023-07-30T03:03:47;1.30;;;1.00;;
41923;SDS011;27613;48.116;11.656;2023-07-30T03:06:13;1.55;;;1.15;;
41923;SDS011;27613;48.116;11.656;2023-07-30T03:08:39;1.45;;;0.98;;
41923;SDS011;27613;48.116;11.656;2023-07-30T03:11:04;1.27;;;1.10;;
41923;SDS011;27613;48.116;11.656;2023-07-30T03:13:30;1.75;;;1.33;;
41923;SDS011;27613;48.116;11.656;2023-07-30T03:15:55;1.20;;;0.98;;
41923;SDS011;27613;48.116;11.656;2023-07-30T03:18:21;1.98;;;1.27;;
41923;SDS011;27613;48.116;11.656;2023-07-30T03:20:46;2.08;;;1.48;;
41923;SDS011;27613;48.116;11.656;2023-07-30T03:23:12;1.92;;;1.40;;
41923;SDS011;27613;48.116;11.656;2023-07-30T03:25:37;2.33;;;1.35;;
41923;SDS011;27613;48.116;11.656;2023-07-30T03:28:03;2.95;;;1.50;;
41923;SDS011;27613;48.116;11.656;2023-07-30T03:30:29;2.97;;;1.48;;
41923;SDS011;27613;48.116;11.656;2023-07-30T03:32:55;1.80;;;1.42;;
41923;SDS011;27613;48.116;11.656;2023-07-30T03:35:20;1.90;;;1.23;;
41923;SDS011;27613;48.116;11.656;2023-07-30T03:37:46;2.72;;;1.30;;
41923;SDS011;27613;48.116;11.656;2023-07-30T03:40:11;2.05;;;1.50;;
41923;SDS011;27613;48.116;11.656;2023-07-30T03:42:37;2.03;;;1.50;;
41923;SDS011;27613;48.116;11.656;2023-07-30T03:45:02;2.15;;;1.60;;
41923;SDS011;27613;48.116;11.656;2023-07-30T03:47:28;2.58;;;1.80;;
41923;SDS011;27613;48.116;11.656;2023-07-30T03:49:54;3.00;;;1.52;;
41923;SDS011;27613;48.116;11.656;2023-07-30T03:52:19;4.10;;;1.70;;
41923;SDS011;27613;48.116;11.656;2023-07-30T03:54:45;2.15;;;1.30;;
41923;SDS011;27613;48.116;11.656;2023-07-30T03:57:10;2.67;;;1.60;;
41923;SDS011;27613;48.116;11.656;2023-07-30T03:59:36;4.25;;;1.70;;
41923;SDS011;27613;48.116;11.656;2023-07-30T04:02:01;4.43;;;1.70;;
41923;SDS011;27613;48.116;11.656;2023-07-30T04:04:27;1.77;;;1.30;;
41923;SDS011;27613;48.116;11.656;2023-07-30T04:06:52;1.67;;;1.42;;
41923;SDS011;27613;48.116;11.656;2023-07-30T04:09:18;2.03;;;1.35;;
41923;SDS011;27613;48.116;11.656;2023-07-30T04:11:44;1.85;;;1.40;;
41923;SDS011;27613;48.116;11.656;2023-07-30T04:14:09;1.70;;;1.40;;
41923;SDS011;27613;48.116;11.656;2023-07-30T04:16:35;2.05;;;1.70;;
41923;SDS011;27613;48.116;11.656;2023-07-30T04:19:00;3.08;;;1.35;;
41923;SDS011;27613;48.116;11.656;2023-07-30T04:21:26;2.60;;;1.50;;
41923;SDS011;27613;48.116;11.656;2023-07-30T04:23:52;2.35;;;1.50;;
41923;SDS011;27613;48.116;11.656;2023-07-30T04:26:17;1.85;;;1.50;;
41923;SDS011;27613;48.116;11.656;2023-07-30T04:28:43;2.05;;;1.52;;
41923;SDS011;27613;48.116;11.656;2023-07-30T04:31:08;3.78;;;1.70;;
41923;SDS011;27613;48.116;11.656;2023-07-30T04:33:34;2.30;;;1.50;;
41923;SDS011;27613;48.116;11.656;2023-07-30T04:35:59;1.60;;;1.35;;
41923;SDS011;27613;48.116;11.656;2023-07-30T04:38:25;1.83;;;1.40;;
41923;SDS011;27613;48.116;11.656;2023-07-30T04:40:50;1.98;;;1.40;;
41923;SDS011;27613;48.116;11.656;2023-07-30T04:43:16;1.80;;;1.38;;
41923;SDS011;27613;48.116;11.656;2023-07-30T04:45:42;2.60;;;1.40;;
41923;SDS011;27613;48.116;11.656;2023-07-30T04:48:08;1.75;;;1.40;;
41923;SDS011;27613;48.116;11.656;2023-07-30T04:50:33;1.55;;;1.25;;
41923;SDS011;27613;48.116;11.656;2023-07-30T04:52:59;1.50;;;1.17;;
41923;SDS011;27613;48.116;11.656;2023-07-30T04:55:25;1.67;;;1.20;;
41923;SDS011;27613;48.116;11.656;2023-07-30T04:57:50;1.55;;;1.15;;
41923;SDS011;27613;48.116;11.656;2023-07-30T05:00:16;1.50;;;1.25;;
41923;SDS011;27613;48.116;11.656;2023-07-30T05:02:41;2.17;;;1.40;;
41923;SDS011;27613;48.116;11.656;2023-07-30T05:05:07;1.58;;;1.25;;
41923;SDS011;27613;48.116;11.656;2023-07-30T05:07:33;1.90;;;1.23;;
41923;SDS011;27613;48.116;11.656;2023-07-30T05:09:58;2.28;;;1.40;;
41923;SDS011;27613;48.116;11.656;2023-07-30T05:12:24;1.45;;;1.13;;
41923;SDS011;27613;48.116;11.656;2023-07-30T05:14:49;1.85;;;1.30;;
41923;SDS011;27613;48.116;11.656;2023-07-30T05:17:15;1.88;;;1.17;;
41923;SDS011;27613;48.116;11.656;2023-07-30T05:19:40;2.22;;;1.20;;
41923;SDS011;27613;48.116;11.656;2023-07-30T05:22:06;2.13;;;1.35;;
41923;SDS011;27613;48.116;11.656;2023-07-30T05:24:32;1.52;;;1.10;;
41923;SDS011;27613;48.116;11.656;2023-07-30T05:26:58;2.75;;;1.60;;
41923;SDS011;27613;48.116;11.656;2023-07-30T05:29:24;2.47;;;1.40;;
41923;SDS011;27613;48.116;11.656;2023-07-30T05:31:50;1.98;;;1.20;;
41923;SDS011;27613;48.116;11.656;2023-07-30T05:34:15;2.00;;;1.23;;
41923;SDS011;27613;48.116;11.656;2023-07-30T05:36:41;1.48;;;1.17;;
41923;SDS011;27613;48.116;11.656;2023-07-30T05:39:06;2.17;;;1.20;;
41923;SDS011;27613;48.116;11.656;2023-07-30T05:41:32;1.88;;;1.20;;
41923;SDS011;27613;48.116;11.656;2023-07-30T05:43:57;1.40;;;1.08;;
41923;SDS011;27613;48.116;11.656;2023-07-30T05:46:23;1.48;;;1.20;;
41923;SDS011;27613;48.116;11.656;2023-07-30T05:48:48;1.75;;;1.20;;
41923;SDS011;27613;48.116;11.656;2023-07-30T05:51:14;1.63;;;1.17;;
41923;SDS011;27613;48.116;11.656;2023-07-30T05:53:39;2.35;;;1.40;;
41923;SDS011;27613;48.116;11.656;2023-07-30T05:56:05;2.08;;;1.20;;
41923;SDS011;27613;48.116;11.656;2023-07-30T05:58:30;1.20;;;1.02;;
41923;SDS011;27613;48.116;11.656;2023-07-30T06:00:56;1.30;;;1.10;;
41923;SDS011;27613;48.116;11.656;2023-07-30T06:03:22;1.55;;;1.10;;
41923;SDS011;27613;48.116;11.656;2023-07-30T06:05:47;1.83;;;1.35;;
41923;SDS011;27613;48.116;11.656;2023-07-30T06:08:13;2.13;;;1.30;;
41923;SDS011;27613;48.116;11.656;2023-07-30T06:10:38;1.50;;;1.30;;
41923;SDS011;27613;48.116;11.656;2023-07-30T06:13:05;2.17;;;1.25;;
41923;SDS011;27613;48.116;11.656;2023-07-30T06:15:31;1.67;;;1.13;;
41923;SDS011;27613;48.116;11.656;2023-07-30T06:17:58;1.27;;;1.15;;
41923;SDS011;27613;48.116;11.656;2023-07-30T06:20:23;2.00;;;1.20;;
41923;SDS011;27613;48.116;11.656;2023-07-30T06:22:49;2.67;;;1.50;;
41923;SDS011;27613;48.116;11.656;2023-07-30T06:25:14;1.48;;;1.10;;
41923;SDS011;27613;48.116;11.656;2023-07-30T06:27:40;1.92;;;1.20;;
41923;SDS011;27613;48.116;11.656;2023-07-30T06:30:05;1.60;;;1.20;;
41923;SDS011;27613;48.116;11.656;2023-07-30T06:32:31;2.78;;;1.20;;
41923;SDS011;27613;48.116;11.656;2023-07-30T06:34:57;2.45;;;1.35;;
41923;SDS011;27613;48.116;11.656;2023-07-30T06:37:23;2.80;;;1.40;;
41923;SDS011;27613;48.116;11.656;2023-07-30T06:39:48;1.73;;;1.25;;
41923;SDS011;27613;48.116;11.656;2023-07-30T06:42:14;1.20;;;1.10;;
41923;SDS011;27613;48.116;11.656;2023-07-30T06:44:39;1.80;;;1.20;;
41923;SDS011;27613;48.116;11.656;2023-07-30T06:47:05;1.17;;;0.95;;
41923;SDS011;27613;48.116;11.656;2023-07-30T06:49:30;1.27;;;1.05;;
41923;SDS011;27613;48.116;11.656;2023-07-30T06:51:59;1.15;;;0.90;;
41923;SDS011;27613;48.116;11.656;2023-07-30T06:54:24;1.92;;;1.50;;
41923;SDS011;27613;48.116;11.656;2023-07-30T06:56:50;1.73;;;1.10;;
41923;SDS011;27613;48.116;11.656;2023-07-30T06:59:15;2.75;;;1.23;;
41923;SDS011;27613;48.116;11.656;2023-07-30T07:01:41;1.27;;;1.08;;
41923;SDS011;27613;48.116;11.656;2023-07-30T07:04:06;1.63;;;1.10;;
41923;SDS011;27613;48.116;11.656;2023-07-30T07:06:32;1.67;;;1.08;;
41923;SDS011;27613;48.116;11.656;2023-07-30T07:08:58;1.83;;;1.05;;
41923;SDS011;27613;48.116;11.656;2023-07-30T07:11:23;1.40;;;1.00;;
41923;SDS011;27613;48.116;11.656;2023-07-30T07:13:49;1.27;;;1.00;;
41923;SDS011;27613;48.116;11.656;2023-07-30T07:16:14;1.58;;;1.15;;
41923;SDS011;27613;48.116;11.656;2023-07-30T07:18:40;14.25;;;1.30;;
41923;SDS011;27613;48.116;11.656;2023-07-30T07:21:05;2.50;;;1.38;;
41923;SDS011;27613;48.116;11.656;2023-07-30T07:23:31;1.33;;;1.08;;
41923;SDS011;27613;48.116;11.656;2023-07-30T07:25:57;1.17;;;0.93;;
41923;SDS011;27613;48.116;11.656;2023-07-30T07:28:22;2.22;;;1.00;;
41923;SDS011;27613;48.116;11.656;2023-07-30T07:30:48;1.00;;;0.90;;
41923;SDS011;27613;48.116;11.656;2023-07-30T07:33:13;1.20;;;1.10;;
41923;SDS011;27613;48.116;11.656;2023-07-30T07:35:39;1.27;;;1.05;;
41923;SDS011;27613;48.116;11.656;2023-07-30T07:38:05;1.23;;;0.90;;
41923;SDS011;27613;48.116;11.656;2023-07-30T07:40:35;1.75;;;1.25;;
41923;SDS011;27613;48.116;11.656;2023-07-30T07:45:32;1.38;;;0.90;;
41923;SDS011;27613;48.116;11.656;2023-07-30T07:47:58;1.77;;;1.30;;
41923;SDS011;27613;48.116;11.656;2023-07-30T07:50:24;1.05;;;0.95;;
41923;SDS011;27613;48.116;11.656;2023-07-30T07:52:49;1.20;;;1.00;;
41923;SDS011;27613;48.116;11.656;2023-07-30T07:55:16;1.20;;;0.90;;
41923;SDS011;27613;48.116;11.656;2023-07-30T07:57:42;1.58;;;1.05;;
41923;SDS011;27613;48.116;11.656;2023-07-30T08:00:07;2.08;;;1.00;;
41923;SDS011;27613;48.116;11.656;2023-07-30T08:02:34;1.58;;;0.93;;
41923;SDS011;27613;48.116;11.656;2023-07-30T08:04:59;1.65;;;1.08;;
41923;SDS011;27613;48.116;11.656;2023-07-30T08:07:25;1.08;;;0.90;;
41923;SDS011;27613;48.116;11.656;2023-07-30T08:09:50;1.33;;;0.95;;
41923;SDS011;27613;48.116;11.656;2023-07-30T08:12:16;1.38;;;1.00;;
41923;SDS011;27613;48.116;11.656;2023-07-30T08:14:45;0.65;;;0.65;;
41923;SDS011;27613;48.116;11.656;2023-07-30T08:17:10;1.63;;;1.00;;
41923;SDS011;27613;48.116;11.656;2023-07-30T08:19:36;1.15;;;0.90;;
41923;SDS011;27613;48.116;11.656;2023-07-30T08:22:01;1.63;;;1.25;;
41923;SDS011;27613;48.116;11.656;2023-07-30T08:24:27;1.90;;;1.20;;
41923;SDS011;27613;48.116;11.656;2023-07-30T08:26:52;1.30;;;1.00;;
41923;SDS011;27613;48.116;11.656;2023-07-30T08:29:18;1.80;;;1.02;;
41923;SDS011;27613;48.116;11.656;2023-07-30T08:31:43;1.75;;;1.10;;
41923;SDS011;27613;48.116;11.656;2023-07-30T08:34:09;2.08;;;1.10;;
41923;SDS011;27613;48.116;11.656;2023-07-30T08:36:34;1.70;;;0.95;;
41923;SDS011;27613;48.116;11.656;2023-07-30T08:39:01;1.15;;;0.95;;
41923;SDS011;27613;48.116;11.656;2023-07-30T08:41:27;1.73;;;1.00;;
41923;SDS011;27613;48.116;11.656;2023-07-30T08:43:52;1.42;;;1.00;;
41923;SDS011;27613;48.116;11.656;2023-07-30T08:46:18;1.52;;;1.08;;
41923;SDS011;27613;48.116;11.656;2023-07-30T08:48:43;1.05;;;0.90;;
41923;SDS011;27613;48.116;11.656;2023-07-30T08:51:09;1.40;;;0.88;;
41923;SDS011;27613;48.116;11.656;2023-07-30T08:53:37;1.50;;;1.20;;
41923;SDS011;27613;48.116;11.656;2023-07-30T08:56:04;1.33;;;0.98;;
41923;SDS011;27613;48.116;11.656;2023-07-30T08:58:31;1.83;;;1.10;;
41923;SDS011;27613;48.116;11.656;2023-07-30T09:00:59;1.08;;;0.88;;
41923;SDS011;27613;48.116;11.656;2023-07-30T09:03:31;1.45;;;1.10;;
41923;SDS011;27613;48.116;11.656;2023-07-30T09:06:00;1.65;;;1.13;;
41923;SDS011;27613;48.116;11.656;2023-07-30T09:08:25;1.60;;;1.17;;
41923;SDS011;27613;48.116;11.656;2023-07-30T09:10:51;1.02;;;0.90;;
41923;SDS011;27613;48.116;11.656;2023-07-30T09:13:23;1.13;;;0.90;;
41923;SDS011;27613;48.116;11.656;2023-07-30T09:15:48;1.25;;;1.08;;
41923;SDS011;27613;48.116;11.656;2023-07-30T09:18:17;1.50;;;1.00;;
41923;SDS011;27613;48.116;11.656;2023-07-30T09:20:43;2.60;;;1.25;;
41923;SDS011;27613;48.116;11.656;2023-07-30T09:23:11;1.40;;;1.00;;
41923;SDS011;27613;48.116;11.656;2023-07-30T09:25:37;0.80;;;0.80;;
41923;SDS011;27613;48.116;11.656;2023-07-30T09:28:03;1.17;;;0.77;;
41923;SDS011;27613;48.116;11.656;2023-07-30T09:30:30;1.23;;;0.93;;
41923;SDS011;27613;48.116;11.656;2023-07-30T09:32:56;2.38;;;1.08;;
41923;SDS011;27613;48.116;11.656;2023-07-30T09:35:23;1.30;;;0.80;;
41923;SDS011;27613;48.116;11.656;2023-07-30T09:38:02;3.88;;;1.30;;
41923;SDS011;27613;48.116;11.656;2023-07-30T09:40:35;1.30;;;0.93;;
41923;SDS011;27613;48.116;11.656;2023-07-30T09:43:02;2.15;;;1.05;;
41923;SDS011;27613;48.116;11.656;2023-07-30T09:45:32;1.00;;;0.90;;
41923;SDS011;27613;48.116;11.656;2023-07-30T09:47:59;1.73;;;0.88;;
41923;SDS011;27613;48.116;11.656;2023-07-30T09:50:27;1.48;;;1.08;;
41923;SDS011;27613;48.116;11.656;2023-07-30T09:52:53;2.25;;;1.00;;
41923;SDS011;27613;48.116;11.656;2023-07-30T09:55:19;1.30;;;0.98;;
41923;SDS011;27613;48.116;11.656;2023-07-30T09:57:45;1.30;;;0.90;;
41923;SDS011;27613;48.116;11.656;2023-07-30T10:00:10;1.17;;;0.98;;
41923;SDS011;27613;48.116;11.656;2023-07-30T10:02:41;0.85;;;0.73;;
41923;SDS011;27613;48.116;11.656;2023-07-30T10:05:11;1.35;;;0.60;;
41923;SDS011;27613;48.116;11.656;2023-07-30T10:10:25;1.75;;;1.10;;
41923;SDS011;27613;48.116;11.656;2023-07-30T10:12:53;1.60;;;0.88;;
41923;SDS011;27613;48.116;11.656;2023-07-30T10:15:22;1.15;;;0.88;;
41923;SDS011;27613;48.116;11.656;2023-07-30T10:17:49;1.45;;;1.00;;
41923;SDS011;27613;48.116;11.656;2023-07-30T10:20:25;1.00;;;0.90;;
41923;SDS011;27613;48.116;11.656;2023-07-30T10:22:54;1.00;;;0.90;;
41923;SDS011;27613;48.116;11.656;2023-07-30T10:25:30;1.45;;;1.02;;
41923;SDS011;27613;48.116;11.656;2023-07-30T10:31:05;1.10;;;0.90;;
41923;SDS011;27613;48.116;11.656;2023-07-30T10:36:16;1.25;;;0.80;;
41923;SDS011;27613;48.116;11.656;2023-07-30T10:39:15;1.33;;;0.82;;
41923;SDS011;27613;48.116;11.656;2023-07-30T10:41:46;2.53;;;0.70;;
41923;SDS011;27613;48.116;11.656;2023-07-30T10:44:33;0.68;;;0.63;;
41923;SDS011;27613;48.116;11.656;2023-07-30T10:46:59;1.73;;;0.90;;
41923;SDS011;27613;48.116;11.656;2023-07-30T10:49:26;3.53;;;1.10;;
41923;SDS011;27613;48.116;11.656;2023-07-30T10:51:53;0.73;;;0.70;;
41923;SDS011;27613;48.116;11.656;2023-07-30T10:54:20;0.95;;;0.73;;
41923;SDS011;27613;48.116;11.656;2023-07-30T10:56:46;1.15;;;0.90;;
41923;SDS011;27613;48.116;11.656;2023-07-30T10:59:12;4.00;;;1.05;;
41923;SDS011;27613;48.116;11.656;2023-07-30T11:01:39;1.70;;;1.08;;
41923;SDS011;27613;48.116;11.656;2023-07-30T11:04:12;1.58;;;1.00;;
41923;SDS011;27613;48.116;11.656;2023-07-30T11:06:46;1.52;;;0.93;;
41923;SDS011;27613;48.116;11.656;2023-07-30T11:09:22;1.77;;;0.85;;
41923;SDS011;27613;48.116;11.656;2023-07-30T11:11:49;1.55;;;1.10;;
41923;SDS011;27613;48.116;11.656;2023-07-30T11:14:17;1.00;;;0.90;;
41923;SDS011;27613;48.116;11.656;2023-07-30T11:16:56;1.17;;;0.80;;
41923;SDS011;27613;48.116;11.656;2023-07-30T11:19:25;1.88;;;1.10;;
41923;SDS011;27613;48.116;11.656;2023-07-30T11:21:52;0.80;;;0.75;;
41923;SDS011;27613;48.116;11.656;2023-07-30T11:24:20;0.80;;;0.80;;
41923;SDS011;27613;48.116;11.656;2023-07-30T11:26:46;0.98;;;0.77;;
41923;SDS011;27613;48.116;11.656;2023-07-30T11:29:25;1.80;;;1.17;;
41923;SDS011;27613;48.116;11.656;2023-07-30T11:31:51;1.30;;;0.88;;
41923;SDS011;27613;48.116;11.656;2023-07-30T11:34:21;1.52;;;0.98;;
41923;SDS011;27613;48.116;11.656;2023-07-30T11:36:47;1.83;;;0.90;;
41923;SDS011;27613;48.116;11.656;2023-07-30T11:39:13;1.58;;;0.90;;
41923;SDS011;27613;48.116;11.656;2023-07-30T11:41:39;1.30;;;1.00;;
41923;SDS011;27613;48.116;11.656;2023-07-30T11:44:04;0.70;;;0.57;;
41923;SDS011;27613;48.116;11.656;2023-07-30T11:46:30;0.98;;;0.80;;
41923;SDS011;27613;48.116;11.656;2023-07-30T11:49:14;0.75;;;0.68;;
41923;SDS011;27613;48.116;11.656;2023-07-30T11:51:41;0.90;;;0.80;;
41923;SDS011;27613;48.116;11.656;2023-07-30T11:54:07;0.47;;;0.47;;
41923;SDS011;27613;48.116;11.656;2023-07-30T11:56:42;0.80;;;0.68;;
41923;SDS011;27613;48.116;11.656;2023-07-30T11:59:08;1.10;;;0.90;;
41923;SDS011;27613;48.116;11.656;2023-07-30T12:01:35;1.40;;;0.95;;
41923;SDS011;27613;48.116;11.656;2023-07-30T12:04:03;1.58;;;0.93;;
41923;SDS011;27613;48.116;11.656;2023-07-30T12:06:39;0.82;;;0.75;;
41923;SDS011;27613;48.116;11.656;2023-07-30T12:09:12;1.27;;;0.88;;
41923;SDS011;27613;48.116;11.656;2023-07-30T12:11:52;1.20;;;1.00;;
41923;SDS011;27613;48.116;11.656;2023-07-30T12:14:25;1.15;;;0.90;;
41923;SDS011;27613;48.116;11.656;2023-07-30T12:16:55;1.88;;;0.98;;
41923;SDS011;27613;48.116;11.656;2023-07-30T12:19:23;1.27;;;0.90;;
41923;SDS011;27613;48.116;11.656;2023-07-30T12:21:49;1.52;;;1.00;;
41923;SDS011;27613;48.116;11.656;2023-07-30T12:24:14;1.23;;;0.80;;
41923;SDS011;27613;48.116;11.656;2023-07-30T12:26:40;0.57;;;0.57;;
41923;SDS011;27613;48.116;11.656;2023-07-30T12:29:06;2.08;;;1.10;;
41923;SDS011;27613;48.116;11.656;2023-07-30T12:31:31;0.95;;;0.80;;
41923;SDS011;27613;48.116;11.656;2023-07-30T12:33:57;1.15;;;0.90;;
41923;SDS011;27613;48.116;11.656;2023-07-30T12:36:22;1.08;;;0.80;;
41923;SDS011;27613;48.116;11.656;2023-07-30T12:38:48;1.17;;;0.90;;
41923;SDS011;27613;48.116;11.656;2023-07-30T12:41:13;1.55;;;0.68;;
41923;SDS011;27613;48.116;11.656;2023-07-30T12:43:39;1.23;;;0.80;;
41923;SDS011;27613;48.116;11.656;2023-07-30T12:46:05;1.35;;;0.90;;
41923;SDS011;27613;48.116;11.656;2023-07-30T12:48:30;4.47;;;0.80;;
41923;SDS011;27613;48.116;11.656;2023-07-30T12:50:56;1.40;;;1.00;;
41923;SDS011;27613;48.116;11.656;2023-07-30T12:53:21;1.05;;;0.88;;
41923;SDS011;27613;48.116;11.656;2023-07-30T12:55:47;3.05;;;0.90;;
41923;SDS011;27613;48.116;11.656;2023-07-30T12:58:12;1.75;;;1.20;;
41923;SDS011;27613;48.116;11.656;2023-07-30T13:00:38;1.33;;;0.90;;
41923;SDS011;27613;48.116;11.656;2023-07-30T13:03:03;5.30;;;1.10;;
41923;SDS011;27613;48.116;11.656;2023-07-30T13:07:59;1.30;;;0.95;;
41923;SDS011;27613;48.116;11.656;2023-07-30T13:10:25;1.70;;;0.82;;
41923;SDS011;27613;48.116;11.656;2023-07-30T13:12:51;0.80;;;0.75;;
41923;SDS011;27613;48.116;11.656;2023-07-30T13:15:16;1.45;;;1.10;;
41923;SDS011;27613;48.116;11.656;2023-07-30T13:17:42;1.38;;;0.90;;
41923;SDS011;27613;48.116;11.656;2023-07-30T13:20:07;0.95;;;0.80;;
41923;SDS011;27613;48.116;11.656;2023-07-30T13:22:33;1.23;;;0.75;;
41923;SDS011;27613;48.116;11.656;2023-07-30T13:24:59;0.80;;;0.70;;
41923;SDS011;27613;48.116;11.656;2023-07-30T13:27:24;0.70;;;0.70;;
41923;SDS011;27613;48.116;11.656;2023-07-30T13:29:50;1.55;;;0.90;;
41923;SDS011;27613;48.116;11.656;2023-07-30T13:32:15;1.00;;;0.90;;
41923;SDS011;27613;48.116;11.656;2023-07-30T13:34:41;1.65;;;1.20;;
41923;SDS011;27613;48.116;11.656;2023-07-30T13:37:06;1.27;;;1.00;;
41923;SDS011;27613;48.116;11.656;2023-07-30T13:39:32;1.70;;;1.05;;
41923;SDS011;27613;48.116;11.656;2023-07-30T13:41:58;0.80;;;0.73;;
41923;SDS011;27613;48.116;11.656;2023-07-30T13:44:23;1.85;;;1.25;;
41923;SDS011;27613;48.116;11.656;2023-07-30T13:46:49;2.45;;;1.23;;
41923;SDS011;27613;48.116;11.656;2023-07-30T13:49:15;1.20;;;1.00;;
41923;SDS011;27613;48.116;11.656;2023-07-30T13:51:41;1.52;;;1.00;;
41923;SDS011;27613;48.116;11.656;2023-07-30T13:54:06;1.45;;;1.10;;
41923;SDS011;27613;48.116;11.656;2023-07-30T13:56:33;3.03;;;1.45;;
41923;SDS011;27613;48.116;11.656;2023-07-30T13:58:59;2.25;;;1.30;;
41923;SDS011;27613;48.116;11.656;2023-07-30T14:01:24;2.88;;;1.45;;
41923;SDS011;27613;48.116;11.656;2023-07-30T14:03:50;1.80;;;1.23;;
41923;SDS011;27613;48.116;11.656;2023-07-30T14:06:16;1.85;;;1.50;;
41923;SDS011;27613;48.116;11.656;2023-07-30T14:08:42;1.85;;;1.38;;
41923;SDS011;27613;48.116;11.656;2023-07-30T14:11:07;1.67;;;1.20;;
41923;SDS011;27613;48.116;11.656;2023-07-30T14:13:33;1.63;;;1.00;;
41923;SDS011;27613;48.116;11.656;2023-07-30T14:15:59;1.70;;;0.80;;
41923;SDS011;27613;48.116;11.656;2023-07-30T14:18:24;1.33;;;1.10;;
41923;SDS011;27613;48.116;11.656;2023-07-30T14:20:50;1.25;;;0.80;;
41923;SDS011;27613;48.116;11.656;2023-07-30T14:23:16;1.13;;;0.80;;
41923;SDS011;27613;48.116;11.656;2023-07-30T14:25:41;1.00;;;0.90;;
41923;SDS011;27613;48.116;11.656;2023-07-30T14:28:07;1.55;;;1.10;;
41923;SDS011;27613;48.116;11.656;2023-07-30T14:30:32;0.68;;;0.68;;
41923;SDS011;27613;48.116;11.656;2023-07-30T14:33:00;1.13;;;1.00;;
41923;SDS011;27613;48.116;11.656;2023-07-30T14:35:26;1.92;;;1.10;;
41923;SDS011;27613;48.116;11.656;2023-07-30T14:37:52;2.60;;;1.10;;
41923;SDS011;27613;48.116;11.656;2023-07-30T14:40:17;2.13;;;1.20;;
41923;SDS011;27613;48.116;11.656;2023-07-30T14:42:43;1.30;;;0.98;;